Time;durP1;ratioP1;P1;durP2;ratioP2;P2;SDS_P1;SDS_P2;PMS_P1;PMS_P2;Temp;Humidity;BMP_temperature;BMP_pressure;BME280_temperature;BME280_humidity;BME280_pressure;Samples;Min_cycle;Max_cycle;Signal;HPM_P1;HPM_P2
2023/06/21 00:00:38;;;;;;;4.57;3.92;;;22.30;99.90;;;;;;4264145;27;20060;-54
2023/06/21 00:02:41;;;;;;;4.80;4.00;;;22.30;99.90;;;;;;4263679;27;20046;-53
2023/06/21 00:04:43;;;;;;;4.43;4.00;;;22.30;99.90;;;;;;4263953;27;20043;-54
2023/06/21 00:06:49;;;;;;;4.60;3.47;;;22.20;99.90;;;;;;4263807;27;20047;-55
2023/06/21 00:08:53;;;;;;;5.07;3.55;;;22.20;99.90;;;;;;4264028;27;20142;-55
2023/06/21 00:10:56;;;;;;;4.25;3.75;;;22.20;99.90;;;;;;4263977;27;20138;-55
2023/06/21 00:12:59;;;;;;;5.97;3.78;;;22.20;99.90;;;;;;4263193;27;20457;-55
2023/06/21 00:15:02;;;;;;;5.00;3.83;;;22.20;99.90;;;;;;4264002;27;20099;-55
2023/06/21 00:17:04;;;;;;;4.72;3.80;;;22.20;99.90;;;;;;4263733;27;20051;-54
2023/06/21 00:19:06;;;;;;;4.10;3.60;;;22.20;99.90;;;;;;4264354;27;20046;-54
2023/06/21 00:21:08;;;;;;;5.35;3.53;;;22.20;99.90;;;;;;4263617;27;20051;-55
2023/06/21 00:23:11;;;;;;;3.83;3.42;;;22.20;99.90;;;;;;4262949;27;20043;-54
2023/06/21 00:25:14;;;;;;;6.55;3.72;;;22.10;99.90;;;;;;4266499;27;20065;-55
2023/06/21 00:27:17;;;;;;;6.13;3.97;;;22.10;99.90;;;;;;4258914;27;20412;-54
2023/06/21 00:29:20;;;;;;;6.40;4.00;;;22.10;99.90;;;;;;4249965;27;20481;-54
2023/06/21 00:31:22;;;;;;;4.20;3.80;;;22.10;99.90;;;;;;4250014;27;20128;-54
2023/06/21 00:33:25;;;;;;;4.13;3.72;;;22.00;99.90;;;;;;4248918;27;20039;-54
2023/06/21 00:35:27;;;;;;;5.78;4.20;;;22.00;99.90;;;;;;4249493;27;20066;-55
2023/06/21 00:37:29;;;;;;;4.97;4.18;;;22.00;99.90;;;;;;4249704;27;20039;-54
2023/06/21 00:39:31;;;;;;;4.43;3.70;;;22.00;99.90;;;;;;4231664;28;20086;-55
2023/06/21 00:41:35;;;;;;;5.05;3.83;;;22.00;99.90;;;;;;4249682;27;20077;-54
2023/06/21 00:43:37;;;;;;;5.13;3.70;;;21.90;99.90;;;;;;4262003;27;20045;-56
2023/06/21 00:45:45;;;;;;;6.95;3.88;;;21.90;99.90;;;;;;4249083;27;20452;-61
2023/06/21 00:47:47;;;;;;;5.30;3.80;;;21.90;99.90;;;;;;4267052;27;20115;-58
2023/06/21 00:49:50;;;;;;;9.63;4.05;;;21.90;99.90;;;;;;4266716;27;20042;-58
2023/06/21 00:51:58;;;;;;;5.70;4.13;;;21.90;99.90;;;;;;4267186;27;20054;-56
2023/06/21 00:54:00;;;;;;;4.32;3.75;;;21.90;99.90;;;;;;4266108;27;20043;-57
2023/06/21 00:56:02;;;;;;;5.57;3.83;;;21.90;99.90;;;;;;4266821;27;20094;-57
2023/06/21 00:58:06;;;;;;;6.55;4.05;;;21.90;99.90;;;;;;4266803;27;20046;-57
2023/06/21 01:00:13;;;;;;;4.60;3.67;;;21.90;99.90;;;;;;4266836;27;20049;-56
2023/06/21 01:02:16;;;;;;;3.72;3.35;;;21.80;99.90;;;;;;4266738;27;20054;-53
2023/06/21 01:04:18;;;;;;;6.72;3.72;;;21.80;99.90;;;;;;4265467;27;20053;-54
2023/06/21 01:06:26;;;;;;;6.47;3.30;;;21.80;99.90;;;;;;4266715;27;20043;-58
2023/06/21 01:08:35;;;;;;;6.82;3.15;;;21.90;99.90;;;;;;4248108;27;20059;-56
2023/06/21 01:10:52;;;;;;;5.75;3.35;;;21.90;99.90;;;;;;4266528;27;20122;-56
2023/06/21 01:13:04;;;;;;;3.83;3.35;;;21.90;99.90;;;;;;4248433;27;20039;-56
2023/06/21 01:15:15;;;;;;;4.43;3.47;;;21.80;99.90;;;;;;4249199;27;20369;-54
2023/06/21 01:17:20;;;;;;;4.13;3.30;;;21.80;99.90;;;;;;4249040;27;20150;-53
2023/06/21 01:19:31;;;;;;;4.20;3.30;;;21.80;99.90;;;;;;4248625;27;20059;-58
2023/06/21 01:21:36;;;;;;;5.93;3.25;;;21.70;99.90;;;;;;4250887;27;20270;-54
2023/06/21 01:23:51;;;;;;;;;;;21.70;99.90;;;;;;4265810;27;20045;-54
2023/06/21 01:26:07;;;;;;;6.47;3.05;;;21.70;99.90;;;;;;4266535;27;20357;-54
2023/06/21 01:28:20;;;;;;;5.25;2.80;;;21.70;99.90;;;;;;4256778;27;20042;-55
2023/06/21 01:30:28;;;;;;;3.17;2.80;;;21.70;99.90;;;;;;4266204;27;20114;-55
2023/06/21 01:32:31;;;;;;;3.42;3.13;;;21.70;99.90;;;;;;4265824;27;20049;-55
2023/06/21 01:34:34;;;;;;;4.88;2.78;;;21.70;99.90;;;;;;4265132;27;20398;-54
2023/06/21 01:36:39;;;;;;;3.30;3.00;;;21.60;99.90;;;;;;4266075;27;20053;-54
2023/06/21 01:38:41;;;;;;;4.55;3.20;;;21.60;99.90;;;;;;4266013;27;20038;-54
2023/06/21 01:40:43;;;;;;;9.23;3.13;;;21.60;99.90;;;;;;4265959;27;20047;-53
2023/06/21 01:42:46;;;;;;;3.05;2.75;;;21.70;99.90;;;;;;4265292;27;20078;-55
2023/06/21 01:44:48;;;;;;;4.35;3.20;;;21.60;99.90;;;;;;4265813;27;20055;-54
2023/06/21 01:46:55;;;;;;;3.05;2.70;;;21.70;99.90;;;;;;4265872;27;20115;-54
2023/06/21 01:48:59;;;;;;;5.18;2.85;;;21.70;99.90;;;;;;4265796;27;20484;-54
2023/06/21 01:51:03;;;;;;;;;;;21.60;99.90;;;;;;4266450;27;20091;-55
2023/06/21 01:53:06;;;;;;;3.30;3.00;;;21.60;99.90;;;;;;4264952;27;19923;-55
2023/06/21 01:55:10;;;;;;;4.43;2.95;;;21.50;99.90;;;;;;4265749;27;20168;-56
2023/06/21 01:57:14;;;;;;;7.68;2.55;;;21.50;99.90;;;;;;4265892;27;20099;-57
2023/06/21 01:59:17;;;;;;;3.80;2.92;;;21.50;99.90;;;;;;4265846;27;20047;-57
2023/06/21 02:01:20;;;;;;;4.47;3.03;;;21.50;99.90;;;;;;4265870;27;20070;-57
2023/06/21 02:03:25;;;;;;;4.97;2.90;;;21.50;99.90;;;;;;4264534;27;20049;-57
2023/06/21 02:05:27;;;;;;;;;;;21.50;99.90;;;;;;4266370;27;20049;-56
2023/06/21 02:07:30;;;;;;;3.88;2.80;;;21.50;99.90;;;;;;4265512;27;20381;-59
2023/06/21 02:09:33;;;;;;;6.60;2.80;;;21.40;99.90;;;;;;4265646;27;20050;-57
2023/06/21 02:11:36;;;;;;;4.97;2.70;;;21.40;99.90;;;;;;4265172;27;20039;-56
2023/06/21 02:13:38;;;;;;;4.85;2.97;;;21.40;99.90;;;;;;4264647;27;20472;-57
2023/06/21 02:15:43;;;;;;;4.70;2.90;;;21.40;99.90;;;;;;4265632;27;20050;-56
2023/06/21 02:17:48;;;;;;;;;;;21.40;99.90;;;;;;4265369;27;20050;-56
2023/06/21 02:19:54;;;;;;;2.65;2.40;;;21.40;99.90;;;;;;4265684;27;19919;-56
2023/06/21 02:21:56;;;;;;;4.22;3.22;;;21.40;99.90;;;;;;4265266;27;20122;-57
2023/06/21 02:23:59;;;;;;;4.03;3.00;;;21.40;99.90;;;;;;4264438;27;20043;-57
2023/06/21 02:26:01;;;;;;;3.80;2.85;;;21.30;99.90;;;;;;4246770;27;20455;-56
2023/06/21 02:28:04;;;;;;;5.32;2.85;;;21.40;99.90;;;;;;4265244;27;20407;-57
2023/06/21 02:30:08;;;;;;;4.15;2.90;;;21.40;99.90;;;;;;4265224;27;20054;-56
2023/06/21 02:32:10;;;;;;;5.57;3.00;;;21.40;99.90;;;;;;4264710;27;20092;-56
2023/06/21 02:34:12;;;;;;;6.45;3.33;;;21.30;99.90;;;;;;4264168;27;20446;-56
2023/06/21 02:36:16;;;;;;;3.60;3.10;;;21.30;99.90;;;;;;4264859;27;20106;-56
2023/06/21 02:38:19;;;;;;;4.70;2.70;;;21.40;99.90;;;;;;4265031;27;20038;-57
2023/06/21 02:40:21;;;;;;;6.20;2.75;;;21.40;99.90;;;;;;4265562;27;20496;-56
2023/06/21 02:42:26;;;;;;;3.63;2.70;;;21.40;99.90;;;;;;4265043;27;20058;-56
2023/06/21 02:44:28;;;;;;;5.28;2.78;;;21.30;99.90;;;;;;4249710;27;20039;-57
2023/06/21 02:46:30;;;;;;;3.10;2.53;;;21.30;99.90;;;;;;4247410;27;20048;-60
2023/06/21 02:48:33;;;;;;;4.05;2.88;;;21.30;99.90;;;;;;4256711;27;20117;-59
2023/06/21 02:50:35;;;;;;;3.70;3.22;;;21.30;99.90;;;;;;4264693;27;20067;-56
2023/06/21 02:52:38;;;;;;;4.43;2.95;;;21.30;99.90;;;;;;4265132;27;20047;-57
2023/06/21 02:54:40;;;;;;;3.25;2.95;;;21.30;99.90;;;;;;4263875;27;20042;-56
2023/06/21 02:56:45;;;;;;;3.85;3.08;;;21.30;99.90;;;;;;4264950;27;20042;-56
2023/06/21 02:58:48;;;;;;;4.05;3.00;;;21.20;99.90;;;;;;4264986;27;20047;-56
2023/06/21 03:00:50;;;;;;;3.00;2.70;;;21.20;99.90;;;;;;4264126;27;20099;-58
2023/06/21 03:02:52;;;;;;;4.53;3.15;;;21.20;99.90;;;;;;4264356;27;20130;-56
2023/06/21 03:04:55;;;;;;;5.15;2.97;;;21.20;99.90;;;;;;4264489;27;20050;-56
2023/06/21 03:06:57;;;;;;;6.20;2.95;;;21.20;99.90;;;;;;4264448;27;20046;-57
2023/06/21 03:09:00;;;;;;;6.72;3.13;;;21.20;99.90;;;;;;4264805;27;20051;-56
2023/06/21 03:11:02;;;;;;;10.00;3.35;;;21.10;99.90;;;;;;4264675;27;20039;-56
2023/06/21 03:13:05;;;;;;;7.32;2.95;;;21.20;99.90;;;;;;4263993;27;20056;-57
2023/06/21 03:15:08;;;;;;;4.18;2.75;;;21.10;99.90;;;;;;4264283;27;20400;-57
2023/06/21 03:17:11;;;;;;;3.67;2.90;;;21.10;99.90;;;;;;4264395;27;20053;-56
2023/06/21 03:19:13;;;;;;;3.90;2.72;;;21.10;99.90;;;;;;4264575;27;20049;-56
2023/06/21 03:21:15;;;;;;;20.85;3.83;;;21.10;99.90;;;;;;4264629;27;20404;-56
2023/06/21 03:23:17;;;;;;;5.20;3.20;;;21.00;99.90;;;;;;4263437;27;20074;-57
2023/06/21 03:25:20;;;;;;;4.45;3.08;;;21.10;99.90;;;;;;4264626;27;20039;-56
2023/06/21 03:27:22;;;;;;;4.38;3.05;;;21.00;99.90;;;;;;4255008;27;20043;-56
2023/06/21 03:29:25;;;;;;;4.28;2.53;;;21.00;99.90;;;;;;4247139;28;20472;-56
2023/06/21 03:31:27;;;;;;;6.07;3.30;;;21.00;99.90;;;;;;4247506;28;20051;-56
2023/06/21 03:33:29;;;;;;;4.22;2.70;;;21.00;99.90;;;;;;4246565;28;20055;-56
2023/06/21 03:35:31;;;;;;;4.35;2.90;;;21.00;99.90;;;;;;4263299;27;20066;-57
2023/06/21 03:37:33;;;;;;;7.38;3.42;;;21.00;99.90;;;;;;4245927;27;20477;-58
2023/06/21 03:39:35;;;;;;;4.90;2.72;;;20.90;99.90;;;;;;4264639;27;20046;-60
2023/06/21 03:41:39;;;;;;;6.10;3.05;;;21.00;99.90;;;;;;4264113;27;20092;-56
2023/06/21 03:43:41;;;;;;;4.88;2.97;;;21.00;99.90;;;;;;4255584;27;20142;-56
2023/06/21 03:45:43;;;;;;;5.28;3.38;;;21.00;99.90;;;;;;4247419;28;20488;-56
2023/06/21 03:47:46;;;;;;;7.93;3.28;;;20.90;99.90;;;;;;4247394;28;20047;-55
2023/06/21 03:49:48;;;;;;;6.88;3.33;;;21.00;99.90;;;;;;4247128;28;20493;-56
2023/06/21 03:51:50;;;;;;;5.05;2.97;;;20.90;99.90;;;;;;4247418;28;20047;-56
2023/06/21 03:53:52;;;;;;;3.97;2.88;;;20.90;99.90;;;;;;4248070;27;20101;-56
2023/06/21 03:55:54;;;;;;;5.53;3.88;;;20.90;99.90;;;;;;4264134;27;20063;-56
2023/06/21 03:57:58;;;;;;;4.15;2.90;;;20.90;99.90;;;;;;4245466;27;20043;-57
2023/06/21 04:00:01;;;;;;;5.60;3.13;;;20.90;99.90;;;;;;4267188;27;20042;-57
2023/06/21 04:02:03;;;;;;;8.02;3.55;;;20.90;99.90;;;;;;4267409;27;20510;-56
2023/06/21 04:04:06;;;;;;;4.95;3.30;;;20.90;99.90;;;;;;4266856;27;20049;-56
2023/06/21 04:06:08;;;;;;;3.85;2.97;;;20.80;99.90;;;;;;4267412;27;20051;-56
2023/06/21 04:08:10;;;;;;;4.60;3.30;;;20.80;99.90;;;;;;4267770;27;20076;-56
2023/06/21 04:10:13;;;;;;;3.60;3.10;;;20.80;99.90;;;;;;4267446;27;20117;-57
2023/06/21 04:12:15;;;;;;;4.10;3.00;;;20.90;99.90;;;;;;4253881;27;20051;-56
2023/06/21 04:14:19;;;;;;;8.13;3.22;;;20.80;99.90;;;;;;4248983;27;20043;-56
2023/06/21 04:16:21;;;;;;;6.18;3.08;;;20.90;99.90;;;;;;4250079;27;20043;-56
2023/06/21 04:18:23;;;;;;;5.13;3.70;;;20.90;99.90;;;;;;4250247;27;20071;-57
2023/06/21 04:20:25;;;;;;;6.53;3.60;;;20.90;99.90;;;;;;4250398;27;20073;-58
2023/06/21 04:22:29;;;;;;;5.38;3.78;;;20.80;99.90;;;;;;4249993;27;20047;-56
2023/06/21 04:24:31;;;;;;;5.82;3.10;;;20.90;99.90;;;;;;4249436;27;20122;-57
2023/06/21 04:26:34;;;;;;;6.63;3.45;;;20.90;99.90;;;;;;4249859;27;20043;-56
2023/06/21 04:28:36;;;;;;;5.55;3.30;;;20.90;99.90;;;;;;4249734;27;20047;-57
2023/06/21 04:30:41;;;;;;;8.20;3.15;;;20.90;99.90;;;;;;4250351;27;20117;-63
2023/06/21 04:32:44;;;;;;;3.63;3.15;;;20.90;99.90;;;;;;4250662;27;20043;-57
2023/06/21 04:34:48;;;;;;;6.07;3.40;;;20.90;99.90;;;;;;4249902;27;20051;-62
2023/06/21 04:36:50;;;;;;;6.00;3.20;;;20.80;99.90;;;;;;4250673;27;20542;-60
2023/06/21 04:38:52;;;;;;;4.32;2.75;;;20.90;99.90;;;;;;4231849;28;20039;-57
2023/06/21 04:40:54;;;;;;;4.25;3.28;;;20.90;99.90;;;;;;4231993;28;20047;-56
2023/06/21 04:42:58;;;;;;;5.80;3.38;;;20.90;99.90;;;;;;4256814;27;20395;-57
2023/06/21 04:45:00;;;;;;;6.30;3.28;;;20.90;99.90;;;;;;4266233;27;20449;-56
2023/06/21 04:47:03;;;;;;;7.30;3.13;;;20.90;99.90;;;;;;4266836;27;20177;-56
2023/06/21 04:49:07;;;;;;;6.15;3.35;;;20.90;99.90;;;;;;4266884;27;20150;-56
2023/06/21 04:51:09;;;;;;;6.22;3.55;;;20.90;99.90;;;;;;4266956;27;20164;-55
2023/06/21 04:53:11;;;;;;;6.32;3.42;;;20.90;99.90;;;;;;4267018;27;20100;-57
2023/06/21 04:55:17;;;;;;;5.18;3.30;;;20.90;99.90;;;;;;4265983;27;20043;-56
2023/06/21 04:57:19;;;;;;;4.93;3.33;;;21.00;99.90;;;;;;4266313;27;20126;-56
2023/06/21 04:59:22;;;;;;;4.72;3.58;;;21.00;99.90;;;;;;4266783;27;20445;-56
2023/06/21 05:01:24;;;;;;;4.28;3.58;;;21.00;99.90;;;;;;4266709;27;20071;-57
2023/06/21 05:03:27;;;;;;;5.90;3.42;;;21.10;99.90;;;;;;4265558;27;20077;-56
2023/06/21 05:05:30;;;;;;;6.00;3.72;;;21.10;99.90;;;;;;4266320;27;20081;-56
2023/06/21 05:07:37;;;;;;;5.97;4.18;;;21.10;99.90;;;;;;4266526;27;20083;-57
2023/06/21 05:09:39;;;;;;;7.45;3.45;;;21.10;99.90;;;;;;4266113;27;20103;-56
2023/06/21 05:11:42;;;;;;;6.40;4.03;;;21.10;99.90;;;;;;4256900;27;20092;-57
2023/06/21 05:13:44;;;;;;;6.78;4.00;;;21.20;99.90;;;;;;4248488;27;20050;-57
2023/06/21 05:15:46;;;;;;;6.55;4.10;;;21.20;99.90;;;;;;4248469;27;20130;-56
2023/06/21 05:17:48;;;;;;;6.15;3.92;;;21.30;99.90;;;;;;4249475;27;20112;-56
2023/06/21 05:19:52;;;;;;;6.82;3.75;;;21.30;99.90;;;;;;4249276;27;20198;-56
2023/06/21 05:21:54;;;;;;;5.95;4.13;;;21.30;99.90;;;;;;4249054;27;20069;-57
2023/06/21 05:23:56;;;;;;;5.30;3.42;;;21.40;99.90;;;;;;4248204;27;20053;-56
2023/06/21 05:25:58;;;;;;;7.63;3.85;;;21.40;99.90;;;;;;4248570;27;20476;-57
2023/06/21 05:28:00;;;;;;;5.60;4.30;;;21.40;99.90;;;;;;4249053;27;20446;-57
2023/06/21 05:30:03;;;;;;;7.13;4.47;;;21.40;99.90;;;;;;4249015;27;20071;-57
2023/06/21 05:32:05;;;;;;;7.32;4.25;;;21.50;99.90;;;;;;4249255;27;20119;-56
2023/06/21 05:34:08;;;;;;;8.35;4.68;;;21.60;99.90;;;;;;4248223;27;20608;-56
2023/06/21 05:36:11;;;;;;;7.43;4.63;;;21.60;99.90;;;;;;4251031;27;20047;-57
2023/06/21 05:38:13;;;;;;;7.70;4.90;;;21.70;99.90;;;;;;4266052;27;20054;-57
2023/06/21 05:40:16;;;;;;;6.60;4.63;;;21.60;99.90;;;;;;4265644;27;20049;-57
2023/06/21 05:42:18;;;;;;;8.00;4.30;;;21.60;99.90;;;;;;4265722;27;20137;-57
2023/06/21 05:44:20;;;;;;;5.75;4.32;;;21.60;99.90;;;;;;4251967;27;20137;-56
2023/06/21 05:46:22;;;;;;;6.60;4.55;;;21.60;99.90;;;;;;4248997;27;20533;-57
2023/06/21 05:48:24;;;;;;;7.53;5.10;;;21.60;99.90;;;;;;4252841;27;20445;-56
2023/06/21 05:50:30;;;;;;;9.30;5.10;;;21.60;99.90;;;;;;4266119;27;20043;-58
2023/06/21 05:52:33;;;;;;;10.32;4.88;;;21.60;99.90;;;;;;4265649;27;20125;-56
2023/06/21 05:54:37;;;;;;;8.75;5.35;;;21.60;99.90;;;;;;4264432;27;20109;-56
2023/06/21 05:56:39;;;;;;;12.45;5.40;;;21.60;99.90;;;;;;4265765;27;20103;-57
2023/06/21 05:58:41;;;;;;;10.10;5.07;;;21.70;99.90;;;;;;4265864;27;20509;-57
2023/06/21 06:00:43;;;;;;;9.93;5.13;;;21.60;99.90;;;;;;4265617;27;20049;-58
2023/06/21 06:02:46;;;;;;;14.15;6.30;;;21.50;99.90;;;;;;4265911;27;20054;-56
2023/06/21 06:04:48;;;;;;;9.05;5.53;;;21.60;99.90;;;;;;4264706;27;20039;-55
2023/06/21 06:06:50;;;;;;;11.90;5.65;;;21.50;99.90;;;;;;4265602;27;20077;-56
2023/06/21 06:08:53;;;;;;;10.90;5.00;;;21.60;99.90;;;;;;4265263;27;20047;-56
2023/06/21 06:10:55;;;;;;;9.02;5.90;;;21.60;99.90;;;;;;4265726;27;20448;-57
2023/06/21 06:12:58;;;;;;;14.35;5.50;;;21.60;99.90;;;;;;4247227;27;20080;-56
2023/06/21 06:15:00;;;;;;;10.75;6.03;;;21.60;99.90;;;;;;4246397;27;20051;-58
2023/06/21 06:17:03;;;;;;;16.52;6.55;;;21.70;99.90;;;;;;4265159;27;20443;-59
2023/06/21 06:19:05;;;;;;;11.10;5.95;;;21.70;99.90;;;;;;4265345;27;20051;-57
2023/06/21 06:21:07;;;;;;;21.88;6.65;;;21.80;99.90;;;;;;4265221;27;20047;-57
2023/06/21 06:23:10;;;;;;;15.30;6.18;;;21.80;99.90;;;;;;4264905;27;20038;-56
2023/06/21 06:25:14;;;;;;;11.93;5.03;;;21.70;99.90;;;;;;4264826;27;20046;-56
2023/06/21 06:27:16;;;;;;;9.97;5.23;;;21.70;99.90;;;;;;4257212;27;20092;-57
2023/06/21 06:29:18;;;;;;;15.65;4.97;;;21.80;99.90;;;;;;4248472;27;20057;-61
2023/06/21 06:31:22;;;;;;;25.55;6.30;;;21.80;99.90;;;;;;4230181;28;20040;-56
2023/06/21 06:33:24;;;;;;;21.90;9.10;;;21.90;99.90;;;;;;4248021;27;20059;-56
2023/06/21 06:35:27;;;;;;;10.80;5.55;;;22.00;99.90;;;;;;4247268;27;20481;-57
2023/06/21 06:37:29;;;;;;;12.43;5.88;;;22.00;99.90;;;;;;4247924;27;20053;-56
2023/06/21 06:39:33;;;;;;;16.90;6.75;;;22.00;99.90;;;;;;4248010;27;20118;-56
2023/06/21 06:41:36;;;;;;;18.55;5.90;;;22.00;99.90;;;;;;4248080;27;20043;-56
2023/06/21 06:43:39;;;;;;;13.38;5.10;;;22.10;99.90;;;;;;4247528;27;20057;-57
2023/06/21 06:45:41;;;;;;;15.85;5.03;;;22.20;99.90;;;;;;4229519;28;20146;-53
2023/06/21 06:47:43;;;;;;;10.63;4.20;;;22.30;99.90;;;;;;4247911;27;20039;-53
2023/06/21 06:49:46;;;;;;;11.02;4.13;;;22.30;99.90;;;;;;4248017;27;20051;-54
2023/06/21 06:51:48;;;;;;;7.40;4.05;;;22.40;99.90;;;;;;4247903;27;20446;-54
2023/06/21 06:53:50;;;;;;;5.70;3.97;;;22.50;99.90;;;;;;4246506;27;20082;-55
2023/06/21 06:55:54;;;;;;;9.63;3.70;;;22.60;99.90;;;;;;4247779;27;20043;-55
2023/06/21 06:57:58;;;;;;;10.55;3.88;;;22.70;99.90;;;;;;4247963;27;20050;-55
2023/06/21 07:00:11;;;;;;;10.00;4.38;;;22.90;99.90;;;;;;4247802;27;20062;-53
2023/06/21 07:02:13;;;;;;;7.40;3.55;;;23.00;99.90;;;;;;4229720;28;20047;-54
2023/06/21 07:04:15;;;;;;;5.22;3.35;;;23.10;99.70;;;;;;4246613;27;20435;-55
2023/06/21 07:06:18;;;;;;;10.90;3.03;;;23.20;99.50;;;;;;4247514;27;20495;-53
2023/06/21 07:08:20;;;;;;;7.30;3.80;;;23.30;99.30;;;;;;4247396;27;20700;-54
2023/06/21 07:10:22;;;;;;;9.18;3.45;;;23.30;99.00;;;;;;4247538;27;20050;-53
2023/06/21 07:12:24;;;;;;;7.10;3.90;;;23.40;99.00;;;;;;4247596;27;20054;-54
2023/06/21 07:14:27;;;;;;;12.13;4.18;;;23.60;99.20;;;;;;4246614;27;20043;-54
2023/06/21 07:16:33;;;;;;;11.27;5.13;;;23.80;98.60;;;;;;4247317;27;20047;-57
2023/06/21 07:18:35;;;;;;;14.23;5.95;;;24.00;98.40;;;;;;4247600;28;20047;-57
2023/06/21 07:20:37;;;;;;;8.88;4.93;;;24.00;97.80;;;;;;4247760;28;20763;-54
2023/06/21 07:22:39;;;;;;;5.97;4.70;;;24.10;97.80;;;;;;4247403;28;20104;-55
2023/06/21 07:24:41;;;;;;;7.55;4.88;;;24.30;98.10;;;;;;4246650;28;20051;-55
2023/06/21 07:26:44;;;;;;;13.82;7.97;;;24.30;97.90;;;;;;4247440;27;20405;-53
2023/06/21 07:28:47;;;;;;;11.93;7.38;;;24.30;97.60;;;;;;4247768;28;20039;-55
2023/06/21 07:30:50;;;;;;;11.45;5.60;;;24.40;97.90;;;;;;4247661;28;20043;-53
2023/06/21 07:32:52;;;;;;;13.27;5.72;;;24.50;97.70;;;;;;4229969;28;20059;-54
2023/06/21 07:34:55;;;;;;;12.00;5.32;;;24.70;97.50;;;;;;4250222;27;20046;-56
2023/06/21 07:36:57;;;;;;;14.07;4.78;;;24.80;97.40;;;;;;4250491;27;20050;-56
2023/06/21 07:38:59;;;;;;;11.13;5.07;;;24.90;97.30;;;;;;4251169;27;20047;-57
2023/06/21 07:41:01;;;;;;;14.35;6.10;;;24.80;97.40;;;;;;4250887;27;20055;-57
2023/06/21 07:43:05;;;;;;;17.08;5.85;;;24.70;97.30;;;;;;4251059;27;20373;-58
2023/06/21 07:45:08;;;;;;;6.68;4.80;;;24.60;96.90;;;;;;4249769;27;20055;-57
2023/06/21 07:47:11;;;;;;;9.63;5.10;;;24.50;97.20;;;;;;4250606;27;20043;-56
2023/06/21 07:49:14;;;;;;;18.33;6.85;;;24.40;97.10;;;;;;4250776;27;20047;-57
2023/06/21 07:51:16;;;;;;;12.02;6.80;;;24.40;97.30;;;;;;4250443;27;20058;-56
2023/06/21 07:53:18;;;;;;;8.95;5.18;;;24.50;97.10;;;;;;4232685;28;20059;-62
2023/06/21 07:55:20;;;;;;;9.95;4.45;;;24.40;97.00;;;;;;4250037;27;20043;-57
2023/06/21 07:57:22;;;;;;;10.43;4.63;;;24.40;97.00;;;;;;4250866;27;20043;-56
2023/06/21 07:59:30;;;;;;;6.68;4.07;;;24.40;97.20;;;;;;4250776;27;20054;-57
2023/06/21 08:01:33;;;;;;;6.38;4.22;;;24.60;97.10;;;;;;4250870;27;20047;-57
2023/06/21 08:03:40;;;;;;;5.55;3.35;;;24.70;97.00;;;;;;4250585;27;20082;-57
2023/06/21 08:05:43;;;;;;;9.50;3.72;;;24.90;96.40;;;;;;4249673;27;20100;-57
2023/06/21 08:07:45;;;;;;;5.97;3.05;;;24.90;96.10;;;;;;4250485;27;20107;-57
2023/06/21 08:09:47;;;;;;;7.68;3.42;;;24.90;96.20;;;;;;4250522;27;20054;-57
2023/06/21 08:11:49;;;;;;;6.43;3.50;;;24.80;96.30;;;;;;4250222;27;20077;-57
2023/06/21 08:13:51;;;;;;;7.43;3.88;;;24.90;95.90;;;;;;4267064;27;20054;-57
2023/06/21 08:15:54;;;;;;;13.45;3.40;;;24.90;95.90;;;;;;4264884;27;20047;-57
2023/06/21 08:17:56;;;;;;;7.15;3.78;;;25.00;95.70;;;;;;4257652;27;20504;-57
2023/06/21 08:19:59;;;;;;;10.48;3.80;;;24.90;95.60;;;;;;4263912;27;20050;-58
2023/06/21 08:22:01;;;;;;;6.35;3.60;;;25.00;95.70;;;;;;4267793;27;20086;-57
2023/06/21 08:24:04;;;;;;;5.97;3.42;;;25.00;95.70;;;;;;4260032;27;20039;-58
2023/06/21 08:26:06;;;;;;;3.83;2.97;;;25.00;95.50;;;;;;4264462;27;20406;-57
2023/06/21 08:28:08;;;;;;;5.03;3.00;;;25.00;95.50;;;;;;4242958;27;20129;-55
2023/06/21 08:30:13;;;;;;;6.40;3.65;;;25.10;95.70;;;;;;4257970;27;20389;-55
2023/06/21 08:32:16;;;;;;;8.60;3.78;;;25.30;95.50;;;;;;4249980;27;20039;-57
2023/06/21 08:34:18;;;;;;;8.35;3.95;;;25.30;95.30;;;;;;4245519;27;20122;-55
2023/06/21 08:36:24;;;;;;;6.78;3.72;;;25.40;95.20;;;;;;4257620;27;20049;-54
2023/06/21 08:38:26;;;;;;;9.65;4.43;;;25.40;95.00;;;;;;4262805;27;20294;-54
2023/06/21 08:40:32;;;;;;;8.70;4.00;;;25.40;94.90;;;;;;4255927;27;20114;-54
2023/06/21 08:42:34;;;;;;;6.75;3.75;;;25.50;94.80;;;;;;4258237;27;20034;-55
2023/06/21 08:44:36;;;;;;;8.90;3.88;;;25.60;94.60;;;;;;4264730;27;20070;-54
2023/06/21 08:46:41;;;;;;;13.68;3.90;;;25.50;94.70;;;;;;4266461;27;20042;-53
2023/06/21 08:48:46;;;;;;;10.32;4.22;;;25.40;94.60;;;;;;4266206;27;20100;-54
2023/06/21 08:50:50;;;;;;;9.60;3.47;;;25.30;94.60;;;;;;4262415;27;20047;-54
2023/06/21 08:52:54;;;;;;;9.00;3.88;;;25.40;94.70;;;;;;4260034;27;20055;-53
2023/06/21 08:55:00;;;;;;;;;;;25.70;94.50;;;;;;4266342;27;20039;-54
2023/06/21 08:57:06;;;;;;;7.43;3.67;;;25.70;94.50;;;;;;4264469;27;20380;-54
2023/06/21 08:59:17;;;;;;;6.32;3.42;;;25.90;94.40;;;;;;4255677;27;20050;-56
2023/06/21 09:01:23;;;;;;;7.32;3.38;;;26.10;94.30;;;;;;4252773;27;20117;-54
2023/06/21 09:03:32;;;;;;;6.05;3.65;;;26.10;93.80;;;;;;4266313;27;20056;-54
2023/06/21 09:05:44;;;;;;;6.35;3.70;;;26.10;93.90;;;;;;4245873;27;20047;-57
2023/06/21 09:07:46;;;;;;;13.55;3.25;;;26.20;93.50;;;;;;4248984;27;20457;-57
2023/06/21 09:09:52;;;;;;;12.38;4.07;;;26.30;93.70;;;;;;4249272;27;20094;-56
2023/06/21 09:11:55;;;;;;;9.07;3.70;;;26.30;93.90;;;;;;4249108;27;20043;-56
2023/06/21 09:13:58;;;;;;;10.30;3.20;;;26.30;93.40;;;;;;4260847;27;20050;-54
2023/06/21 09:16:02;;;;;;;8.63;3.40;;;26.40;93.00;;;;;;4259756;27;20043;-53
2023/06/21 09:18:05;;;;;;;7.30;3.80;;;26.30;92.80;;;;;;4264241;27;20480;-53
2023/06/21 09:20:09;;;;;;;9.82;3.70;;;26.10;93.00;;;;;;4266110;27;20129;-54
2023/06/21 09:22:13;;;;;;;5.03;3.53;;;26.10;93.10;;;;;;4266132;27;20484;-54
2023/06/21 09:24:15;;;;;;;5.25;3.10;;;26.20;92.60;;;;;;4264125;27;20250;-57
2023/06/21 09:26:18;;;;;;;4.80;3.08;;;26.20;92.40;;;;;;4263848;27;20043;-56
2023/06/21 09:28:21;;;;;;;7.10;3.53;;;26.20;92.10;;;;;;4249669;27;20041;-57
2023/06/21 09:30:23;;;;;;;5.95;3.60;;;26.10;92.30;;;;;;4262061;27;20047;-57
2023/06/21 09:32:28;;;;;;;9.13;3.50;;;26.10;92.20;;;;;;4251738;27;20042;-56
2023/06/21 09:34:31;;;;;;;5.68;3.53;;;26.10;91.90;;;;;;4260096;27;20042;-54
2023/06/21 09:36:33;;;;;;;5.43;2.97;;;26.10;92.00;;;;;;4261823;27;20046;-53
2023/06/21 09:38:38;;;;;;;5.10;3.38;;;26.10;92.10;;;;;;4248135;27;20191;-54
2023/06/21 09:45:36;;;;;;;11.55;3.83;;;26.30;92.40;;;;;;4216631;23;20081;-53
2023/06/21 09:47:41;;;;;;;35.95;5.68;;;26.60;92.30;;;;;;4111848;28;20559;-53
2023/06/21 09:49:45;;;;;;;10.77;3.47;;;26.50;92.30;;;;;;4115397;28;20042;-53
2023/06/21 09:51:48;;;;;;;14.45;3.78;;;26.50;91.80;;;;;;4115502;28;20051;-53
2023/06/21 09:53:51;;;;;;;10.98;3.47;;;26.40;92.00;;;;;;4115226;28;20054;-52
2023/06/21 09:55:56;;;;;;;7.15;3.88;;;26.50;91.90;;;;;;4113835;28;20046;-53
2023/06/21 09:58:00;;;;;;;7.63;3.17;;;26.30;91.50;;;;;;4129933;28;20050;-53
2023/06/21 10:00:05;;;;;;;;;;;26.30;91.90;;;;;;4115868;28;20063;-55
2023/06/21 10:02:10;;;;;;;20.88;4.85;;;26.30;92.20;;;;;;4115230;28;20310;-53
2023/06/21 10:04:14;;;;;;;48.00;5.07;;;26.10;91.10;;;;;;4114883;28;20134;-52
2023/06/21 10:06:16;;;;;;;15.00;4.45;;;26.20;91.40;;;;;;4114685;28;20141;-52
2023/06/21 10:08:23;;;;;;;7.80;3.92;;;26.50;93.00;;;;;;4115154;28;20061;-55
2023/06/21 10:10:25;;;;;;;4.95;3.35;;;26.60;92.80;;;;;;4130258;28;20164;-54
2023/06/21 10:12:28;;;;;;;14.25;4.43;;;26.60;92.30;;;;;;4115474;28;20051;-54
2023/06/21 10:14:30;;;;;;;10.38;4.07;;;26.70;92.10;;;;;;4114335;28;20078;-54
2023/06/21 10:16:34;;;;;;;8.52;3.53;;;26.70;92.20;;;;;;4115343;28;20054;-54
2023/06/21 10:18:38;;;;;;;5.72;3.40;;;26.80;92.20;;;;;;4114594;28;20046;-55
2023/06/21 10:20:42;;;;;;;6.75;3.38;;;26.90;91.50;;;;;;4097824;28;20062;-55
2023/06/21 10:22:51;;;;;;;7.15;3.08;;;26.90;91.90;;;;;;4115165;28;20134;-55
2023/06/21 10:24:57;;;;;;;7.60;3.70;;;26.90;91.60;;;;;;4114053;28;20043;-56
2023/06/21 10:26:59;;;;;;;4.88;3.20;;;26.80;90.60;;;;;;4115112;28;20054;-55
2023/06/21 10:29:03;;;;;;;14.30;3.70;;;26.80;90.60;;;;;;4114981;28;20133;-56
2023/06/21 10:31:08;;;;;;;9.20;3.20;;;26.90;90.40;;;;;;4115008;28;20492;-54
2023/06/21 10:33:14;;;;;;;5.30;3.60;;;26.90;90.60;;;;;;4115219;28;20397;-55
2023/06/21 10:35:21;;;;;;;7.90;3.67;;;27.00;91.10;;;;;;4113965;28;20102;-54
2023/06/21 10:37:32;;;;;;;7.85;3.70;;;27.00;90.70;;;;;;4114848;28;20047;-54
2023/06/21 10:39:34;;;;;;;10.50;3.70;;;26.90;90.30;;;;;;4117409;28;20133;-54
2023/06/21 10:41:38;;;;;;;6.63;3.13;;;26.70;90.60;;;;;;4121559;28;20043;-54
2023/06/21 10:43:41;;;;;;;12.18;3.65;;;26.70;91.20;;;;;;4116128;28;20424;-56
2023/06/21 10:45:45;;;;;;;13.00;3.53;;;26.80;91.00;;;;;;4109845;28;20133;-53